sensor_id;sensor_type;location;lat;lon;timestamp;P1;durP1;ratioP1;P2;durP2;ratioP2
21299;SDS011;10809;49.476;11.016;2023-11-18T00:00:57;2.80;;;2.57;;
21299;SDS011;10809;49.476;11.016;2023-11-18T00:03:34;2.93;;;2.50;;
21299;SDS011;10809;49.476;11.016;2023-11-18T00:06:05;3.10;;;2.43;;
21299;SDS011;10809;49.476;11.016;2023-11-18T00:08:35;3.90;;;2.47;;
21299;SDS011;10809;49.476;11.016;2023-11-18T00:11:06;3.93;;;2.73;;
21299;SDS011;10809;49.476;11.016;2023-11-18T00:13:37;3.10;;;2.67;;
21299;SDS011;10809;49.476;11.016;2023-11-18T00:16:10;2.40;;;2.20;;
21299;SDS011;10809;49.476;11.016;2023-11-18T00:18:43;2.03;;;1.90;;
21299;SDS011;10809;49.476;11.016;2023-11-18T00:21:13;2.40;;;2.20;;
21299;SDS011;10809;49.476;11.016;2023-11-18T00:23:44;2.20;;;2.07;;
21299;SDS011;10809;49.476;11.016;2023-11-18T00:26:15;2.20;;;2.00;;
21299;SDS011;10809;49.476;11.016;2023-11-18T00:28:47;1.80;;;1.70;;
21299;SDS011;10809;49.476;11.016;2023-11-18T00:31:21;2.90;;;2.27;;
21299;SDS011;10809;49.476;11.016;2023-11-18T00:33:52;2.20;;;1.80;;
21299;SDS011;10809;49.476;11.016;2023-11-18T00:36:23;2.20;;;1.70;;
21299;SDS011;10809;49.476;11.016;2023-11-18T00:38:53;4.60;;;1.97;;
21299;SDS011;10809;49.476;11.016;2023-11-18T00:41:23;2.37;;;1.80;;
21299;SDS011;10809;49.476;11.016;2023-11-18T00:43:54;2.70;;;1.70;;
21299;SDS011;10809;49.476;11.016;2023-11-18T00:46:24;2.20;;;2.00;;
21299;SDS011;10809;49.476;11.016;2023-11-18T00:48:57;1.87;;;1.77;;
21299;SDS011;10809;49.476;11.016;2023-11-18T00:51:28;2.10;;;1.90;;
21299;SDS011;10809;49.476;11.016;2023-11-18T00:53:58;1.47;;;1.37;;
21299;SDS011;10809;49.476;11.016;2023-11-18T00:56:33;1.90;;;1.77;;
21299;SDS011;10809;49.476;11.016;2023-11-18T00:59:04;2.13;;;1.47;;
21299;SDS011;10809;49.476;11.016;2023-11-18T01:01:37;2.10;;;2.00;;
21299;SDS011;10809;49.476;11.016;2023-11-18T01:04:07;2.40;;;2.20;;
21299;SDS011;10809;49.476;11.016;2023-11-18T01:06:37;1.87;;;1.77;;
21299;SDS011;10809;49.476;11.016;2023-11-18T01:09:08;1.83;;;1.50;;
21299;SDS011;10809;49.476;11.016;2023-11-18T01:11:39;1.90;;;1.70;;
21299;SDS011;10809;49.476;11.016;2023-11-18T01:14:10;1.97;;;1.77;;
21299;SDS011;10809;49.476;11.016;2023-11-18T01:16:40;2.53;;;1.90;;
21299;SDS011;10809;49.476;11.016;2023-11-18T01:19:10;1.57;;;1.47;;
21299;SDS011;10809;49.476;11.016;2023-11-18T01:21:41;2.00;;;1.83;;
21299;SDS011;10809;49.476;11.016;2023-11-18T01:24:11;3.03;;;2.00;;
21299;SDS011;10809;49.476;11.016;2023-11-18T01:26:42;5.03;;;2.20;;
21299;SDS011;10809;49.476;11.016;2023-11-18T01:29:12;1.77;;;1.50;;
21299;SDS011;10809;49.476;11.016;2023-11-18T01:31:43;4.57;;;2.13;;
21299;SDS011;10809;49.476;11.016;2023-11-18T01:34:13;2.50;;;1.80;;
21299;SDS011;10809;49.476;11.016;2023-11-18T01:36:44;2.37;;;1.77;;
21299;SDS011;10809;49.476;11.016;2023-11-18T01:39:17;2.10;;;1.60;;
21299;SDS011;10809;49.476;11.016;2023-11-18T01:41:48;2.50;;;1.83;;
21299;SDS011;10809;49.476;11.016;2023-11-18T01:44:19;1.80;;;1.70;;
21299;SDS011;10809;49.476;11.016;2023-11-18T01:46:50;2.17;;;1.70;;
21299;SDS011;10809;49.476;11.016;2023-11-18T01:49:21;2.10;;;1.70;;
21299;SDS011;10809;49.476;11.016;2023-11-18T01:51:52;1.73;;;1.63;;
21299;SDS011;10809;49.476;11.016;2023-11-18T01:54:24;2.20;;;2.00;;
21299;SDS011;10809;49.476;11.016;2023-11-18T01:56:55;1.90;;;1.60;;
21299;SDS011;10809;49.476;11.016;2023-11-18T01:59:25;1.70;;;1.60;;
21299;SDS011;10809;49.476;11.016;2023-11-18T02:01:56;1.80;;;1.60;;
21299;SDS011;10809;49.476;11.016;2023-11-18T02:04:35;1.70;;;1.60;;
21299;SDS011;10809;49.476;11.016;2023-11-18T02:07:09;1.90;;;1.80;;
21299;SDS011;10809;49.476;11.016;2023-11-18T02:09:45;1.70;;;1.60;;
21299;SDS011;10809;49.476;11.016;2023-11-18T02:12:21;1.83;;;1.70;;
21299;SDS011;10809;49.476;11.016;2023-11-18T02:14:57;1.93;;;1.80;;
21299;SDS011;10809;49.476;11.016;2023-11-18T02:17:31;2.00;;;1.90;;
21299;SDS011;10809;49.476;11.016;2023-11-18T02:20:05;1.83;;;1.73;;
21299;SDS011;10809;49.476;11.016;2023-11-18T02:22:43;2.10;;;1.87;;
21299;SDS011;10809;49.476;11.016;2023-11-18T02:25:16;2.00;;;1.90;;
21299;SDS011;10809;49.476;11.016;2023-11-18T02:27:51;2.17;;;1.90;;
21299;SDS011;10809;49.476;11.016;2023-11-18T02:30:22;1.73;;;1.30;;
21299;SDS011;10809;49.476;11.016;2023-11-18T02:33:11;1.80;;;1.70;;
21299;SDS011;10809;49.476;11.016;2023-11-18T02:35:52;1.67;;;1.30;;
21299;SDS011;10809;49.476;11.016;2023-11-18T02:38:29;1.53;;;1.13;;
21299;SDS011;10809;49.476;11.016;2023-11-18T02:41:05;1.50;;;1.40;;
21299;SDS011;10809;49.476;11.016;2023-11-18T02:43:39;1.87;;;1.63;;
21299;SDS011;10809;49.476;11.016;2023-11-18T02:46:10;1.80;;;1.70;;
21299;SDS011;10809;49.476;11.016;2023-11-18T02:48:45;1.80;;;1.70;;
21299;SDS011;10809;49.476;11.016;2023-11-18T02:51:16;2.37;;;2.00;;
21299;SDS011;10809;49.476;11.016;2023-11-18T02:53:47;1.90;;;1.30;;
21299;SDS011;10809;49.476;11.016;2023-11-18T02:56:17;1.50;;;1.40;;
21299;SDS011;10809;49.476;11.016;2023-11-18T02:58:48;1.83;;;1.47;;
21299;SDS011;10809;49.476;11.016;2023-11-18T03:01:19;1.50;;;1.40;;
21299;SDS011;10809;49.476;11.016;2023-11-18T03:03:49;2.10;;;1.70;;
21299;SDS011;10809;49.476;11.016;2023-11-18T03:06:20;6.27;;;1.50;;
21299;SDS011;10809;49.476;11.016;2023-11-18T03:08:51;2.07;;;1.53;;
21299;SDS011;10809;49.476;11.016;2023-11-18T03:11:23;2.03;;;1.83;;
21299;SDS011;10809;49.476;11.016;2023-11-18T03:13:53;3.53;;;1.40;;
21299;SDS011;10809;49.476;11.016;2023-11-18T03:16:24;1.90;;;1.80;;
21299;SDS011;10809;49.476;11.016;2023-11-18T03:18:54;1.90;;;1.70;;
21299;SDS011;10809;49.476;11.016;2023-11-18T03:21:25;1.87;;;1.67;;
21299;SDS011;10809;49.476;11.016;2023-11-18T03:23:56;1.50;;;1.40;;
21299;SDS011;10809;49.476;11.016;2023-11-18T03:26:27;1.70;;;1.60;;
21299;SDS011;10809;49.476;11.016;2023-11-18T03:28:58;1.67;;;1.50;;
21299;SDS011;10809;49.476;11.016;2023-11-18T03:31:31;1.83;;;1.73;;
21299;SDS011;10809;49.476;11.016;2023-11-18T03:34:02;2.33;;;1.83;;
21299;SDS011;10809;49.476;11.016;2023-11-18T03:36:32;1.90;;;1.60;;
21299;SDS011;10809;49.476;11.016;2023-11-18T03:39:03;2.20;;;1.70;;
21299;SDS011;10809;49.476;11.016;2023-11-18T03:41:33;2.03;;;1.77;;
21299;SDS011;10809;49.476;11.016;2023-11-18T03:44:07;1.93;;;1.77;;
21299;SDS011;10809;49.476;11.016;2023-11-18T03:46:38;1.77;;;1.57;;
21299;SDS011;10809;49.476;11.016;2023-11-18T03:49:09;1.83;;;1.60;;
21299;SDS011;10809;49.476;11.016;2023-11-18T03:51:39;2.63;;;1.73;;
21299;SDS011;10809;49.476;11.016;2023-11-18T03:54:10;3.30;;;1.73;;
21299;SDS011;10809;49.476;11.016;2023-11-18T03:56:40;5.53;;;1.90;;
21299;SDS011;10809;49.476;11.016;2023-11-18T03:59:10;2.80;;;1.87;;
21299;SDS011;10809;49.476;11.016;2023-11-18T04:01:41;2.47;;;2.03;;
21299;SDS011;10809;49.476;11.016;2023-11-18T04:04:11;2.70;;;1.90;;
21299;SDS011;10809;49.476;11.016;2023-11-18T04:06:42;1.73;;;1.63;;
21299;SDS011;10809;49.476;11.016;2023-11-18T04:09:12;2.43;;;2.23;;
21299;SDS011;10809;49.476;11.016;2023-11-18T04:11:43;3.07;;;2.43;;
21299;SDS011;10809;49.476;11.016;2023-11-18T04:14:18;2.60;;;2.30;;
21299;SDS011;10809;49.476;11.016;2023-11-18T04:16:49;2.43;;;2.10;;
21299;SDS011;10809;49.476;11.016;2023-11-18T04:19:19;3.00;;;2.50;;
21299;SDS011;10809;49.476;11.016;2023-11-18T04:21:49;3.03;;;2.23;;
21299;SDS011;10809;49.476;11.016;2023-11-18T04:24:20;1.87;;;1.60;;
21299;SDS011;10809;49.476;11.016;2023-11-18T04:26:50;1.80;;;1.70;;
21299;SDS011;10809;49.476;11.016;2023-11-18T04:29:21;2.47;;;2.27;;
21299;SDS011;10809;49.476;11.016;2023-11-18T04:31:53;2.23;;;2.03;;
21299;SDS011;10809;49.476;11.016;2023-11-18T04:34:23;2.87;;;2.03;;
21299;SDS011;10809;49.476;11.016;2023-11-18T04:36:55;2.37;;;2.00;;
21299;SDS011;10809;49.476;11.016;2023-11-18T04:39:25;2.53;;;1.90;;
21299;SDS011;10809;49.476;11.016;2023-11-18T04:41:55;3.40;;;1.80;;
21299;SDS011;10809;49.476;11.016;2023-11-18T04:44:26;2.43;;;2.20;;
21299;SDS011;10809;49.476;11.016;2023-11-18T04:46:57;2.63;;;2.07;;
21299;SDS011;10809;49.476;11.016;2023-11-18T04:49:27;2.90;;;2.20;;
21299;SDS011;10809;49.476;11.016;2023-11-18T04:51:58;2.47;;;2.27;;
21299;SDS011;10809;49.476;11.016;2023-11-18T04:54:29;2.97;;;2.40;;
21299;SDS011;10809;49.476;11.016;2023-11-18T04:56:59;5.47;;;2.00;;
21299;SDS011;10809;49.476;11.016;2023-11-18T04:59:29;3.70;;;2.43;;
21299;SDS011;10809;49.476;11.016;2023-11-18T05:02:03;2.57;;;2.37;;
21299;SDS011;10809;49.476;11.016;2023-11-18T05:04:33;3.30;;;2.33;;
21299;SDS011;10809;49.476;11.016;2023-11-18T05:07:03;2.23;;;2.03;;
21299;SDS011;10809;49.476;11.016;2023-11-18T05:09:34;3.17;;;2.53;;
21299;SDS011;10809;49.476;11.016;2023-11-18T05:12:04;2.77;;;1.83;;
21299;SDS011;10809;49.476;11.016;2023-11-18T05:14:35;2.60;;;2.40;;
21299;SDS011;10809;49.476;11.016;2023-11-18T05:17:05;2.00;;;1.90;;
21299;SDS011;10809;49.476;11.016;2023-11-18T05:19:36;6.13;;;4.63;;
21299;SDS011;10809;49.476;11.016;2023-11-18T05:22:07;4.70;;;3.50;;
21299;SDS011;10809;49.476;11.016;2023-11-18T05:24:37;4.90;;;3.97;;
21299;SDS011;10809;49.476;11.016;2023-11-18T05:27:08;3.47;;;3.07;;
21299;SDS011;10809;49.476;11.016;2023-11-18T05:29:38;3.23;;;2.40;;
21299;SDS011;10809;49.476;11.016;2023-11-18T05:32:11;4.07;;;3.10;;
21299;SDS011;10809;49.476;11.016;2023-11-18T05:34:41;4.63;;;3.40;;
21299;SDS011;10809;49.476;11.016;2023-11-18T05:37:12;6.57;;;3.27;;
21299;SDS011;10809;49.476;11.016;2023-11-18T05:39:42;3.17;;;2.87;;
21299;SDS011;10809;49.476;11.016;2023-11-18T05:42:15;3.00;;;2.70;;
21299;SDS011;10809;49.476;11.016;2023-11-18T05:44:45;2.23;;;2.03;;
21299;SDS011;10809;49.476;11.016;2023-11-18T05:47:15;2.40;;;1.80;;
21299;SDS011;10809;49.476;11.016;2023-11-18T05:49:46;2.10;;;1.90;;
21299;SDS011;10809;49.476;11.016;2023-11-18T05:52:17;2.07;;;1.87;;
21299;SDS011;10809;49.476;11.016;2023-11-18T05:54:47;3.10;;;2.80;;
21299;SDS011;10809;49.476;11.016;2023-11-18T05:57:21;3.30;;;3.00;;
21299;SDS011;10809;49.476;11.016;2023-11-18T05:59:54;6.23;;;4.13;;
21299;SDS011;10809;49.476;11.016;2023-11-18T06:02:25;9.30;;;2.97;;
21299;SDS011;10809;49.476;11.016;2023-11-18T06:04:55;3.23;;;2.30;;
21299;SDS011;10809;49.476;11.016;2023-11-18T06:07:33;8.07;;;4.53;;
21299;SDS011;10809;49.476;11.016;2023-11-18T06:10:05;4.70;;;3.97;;
21299;SDS011;10809;49.476;11.016;2023-11-18T06:12:36;4.50;;;3.70;;
21299;SDS011;10809;49.476;11.016;2023-11-18T06:15:10;3.57;;;3.00;;
21299;SDS011;10809;49.476;11.016;2023-11-18T06:17:44;2.93;;;2.60;;
21299;SDS011;10809;49.476;11.016;2023-11-18T06:20:14;2.70;;;2.30;;
21299;SDS011;10809;49.476;11.016;2023-11-18T06:22:47;2.40;;;2.20;;
21299;SDS011;10809;49.476;11.016;2023-11-18T06:25:17;3.83;;;2.20;;
21299;SDS011;10809;49.476;11.016;2023-11-18T06:27:48;1.77;;;1.67;;
21299;SDS011;10809;49.476;11.016;2023-11-18T06:30:20;2.20;;;1.90;;
21299;SDS011;10809;49.476;11.016;2023-11-18T06:32:50;2.37;;;2.10;;
21299;SDS011;10809;49.476;11.016;2023-11-18T06:35:21;3.60;;;2.10;;
21299;SDS011;10809;49.476;11.016;2023-11-18T06:37:51;2.03;;;1.83;;
21299;SDS011;10809;49.476;11.016;2023-11-18T06:40:22;1.60;;;1.50;;
21299;SDS011;10809;49.476;11.016;2023-11-18T06:42:56;2.30;;;1.80;;
21299;SDS011;10809;49.476;11.016;2023-11-18T06:45:31;1.80;;;1.70;;
21299;SDS011;10809;49.476;11.016;2023-11-18T06:48:05;2.27;;;1.77;;
21299;SDS011;10809;49.476;11.016;2023-11-18T06:50:43;2.60;;;1.90;;
21299;SDS011;10809;49.476;11.016;2023-11-18T06:53:14;2.13;;;1.93;;
21299;SDS011;10809;49.476;11.016;2023-11-18T06:55:48;2.80;;;1.80;;
21299;SDS011;10809;49.476;11.016;2023-11-18T06:58:18;2.40;;;2.20;;
21299;SDS011;10809;49.476;11.016;2023-11-18T07:00:48;2.77;;;2.23;;
21299;SDS011;10809;49.476;11.016;2023-11-18T07:03:19;2.87;;;1.83;;
21299;SDS011;10809;49.476;11.016;2023-11-18T07:05:49;1.93;;;1.83;;
21299;SDS011;10809;49.476;11.016;2023-11-18T07:08:20;2.23;;;2.03;;
21299;SDS011;10809;49.476;11.016;2023-11-18T07:10:50;2.87;;;2.17;;
21299;SDS011;10809;49.476;11.016;2023-11-18T07:13:20;2.77;;;2.53;;
21299;SDS011;10809;49.476;11.016;2023-11-18T07:15:53;4.90;;;2.63;;
21299;SDS011;10809;49.476;11.016;2023-11-18T07:18:26;2.43;;;2.00;;
21299;SDS011;10809;49.476;11.016;2023-11-18T07:20:58;2.27;;;2.07;;
21299;SDS011;10809;49.476;11.016;2023-11-18T07:23:29;2.43;;;2.23;;
21299;SDS011;10809;49.476;11.016;2023-11-18T07:26:06;2.30;;;2.10;;
21299;SDS011;10809;49.476;11.016;2023-11-18T07:28:39;3.23;;;2.00;;
21299;SDS011;10809;49.476;11.016;2023-11-18T07:31:11;4.43;;;2.30;;
21299;SDS011;10809;49.476;11.016;2023-11-18T07:33:42;2.80;;;2.60;;
21299;SDS011;10809;49.476;11.016;2023-11-18T07:36:17;2.57;;;2.10;;
21299;SDS011;10809;49.476;11.016;2023-11-18T07:38:49;2.60;;;2.40;;
21299;SDS011;10809;49.476;11.016;2023-11-18T07:41:26;2.77;;;2.40;;
21299;SDS011;10809;49.476;11.016;2023-11-18T07:43:57;3.70;;;2.43;;
21299;SDS011;10809;49.476;11.016;2023-11-18T07:46:30;4.33;;;3.87;;
21299;SDS011;10809;49.476;11.016;2023-11-18T07:49:01;4.70;;;3.60;;
21299;SDS011;10809;49.476;11.016;2023-11-18T07:51:40;4.70;;;3.43;;
21299;SDS011;10809;49.476;11.016;2023-11-18T07:54:12;3.13;;;2.60;;
21299;SDS011;10809;49.476;11.016;2023-11-18T07:56:42;3.73;;;2.73;;
21299;SDS011;10809;49.476;11.016;2023-11-18T07:59:13;4.03;;;3.13;;
21299;SDS011;10809;49.476;11.016;2023-11-18T08:01:45;3.37;;;3.07;;
21299;SDS011;10809;49.476;11.016;2023-11-18T08:04:16;4.90;;;3.60;;
21299;SDS011;10809;49.476;11.016;2023-11-18T08:06:53;4.43;;;3.53;;
21299;SDS011;10809;49.476;11.016;2023-11-18T08:09:29;4.20;;;3.57;;
21299;SDS011;10809;49.476;11.016;2023-11-18T08:12:01;4.27;;;3.67;;
21299;SDS011;10809;49.476;11.016;2023-11-18T08:14:31;3.30;;;3.00;;
21299;SDS011;10809;49.476;11.016;2023-11-18T08:17:02;3.70;;;2.97;;
21299;SDS011;10809;49.476;11.016;2023-11-18T08:19:34;3.23;;;2.50;;
21299;SDS011;10809;49.476;11.016;2023-11-18T08:22:04;3.27;;;2.97;;
21299;SDS011;10809;49.476;11.016;2023-11-18T08:24:36;3.97;;;2.80;;
21299;SDS011;10809;49.476;11.016;2023-11-18T08:27:07;3.43;;;3.00;;
21299;SDS011;10809;49.476;11.016;2023-11-18T08:29:37;3.57;;;3.17;;
21299;SDS011;10809;49.476;11.016;2023-11-18T08:32:08;3.33;;;2.70;;
21299;SDS011;10809;49.476;11.016;2023-11-18T08:34:39;3.10;;;2.67;;
21299;SDS011;10809;49.476;11.016;2023-11-18T08:37:11;4.27;;;3.00;;
21299;SDS011;10809;49.476;11.016;2023-11-18T08:39:41;4.30;;;3.20;;
21299;SDS011;10809;49.476;11.016;2023-11-18T08:42:11;3.43;;;3.07;;
21299;SDS011;10809;49.476;11.016;2023-11-18T08:44:45;4.97;;;3.23;;
21299;SDS011;10809;49.476;11.016;2023-11-18T08:47:18;3.33;;;3.03;;
21299;SDS011;10809;49.476;11.016;2023-11-18T08:49:49;3.67;;;3.20;;
21299;SDS011;10809;49.476;11.016;2023-11-18T08:52:19;3.67;;;3.27;;
21299;SDS011;10809;49.476;11.016;2023-11-18T08:54:53;3.60;;;3.10;;
21299;SDS011;10809;49.476;11.016;2023-11-18T08:57:42;4.13;;;3.07;;
21299;SDS011;10809;49.476;11.016;2023-11-18T09:00:22;3.57;;;3.07;;
21299;SDS011;10809;49.476;11.016;2023-11-18T09:03:11;3.80;;;3.30;;
21299;SDS011;10809;49.476;11.016;2023-11-18T09:05:47;3.90;;;3.30;;
21299;SDS011;10809;49.476;11.016;2023-11-18T09:08:27;4.53;;;3.50;;
21299;SDS011;10809;49.476;11.016;2023-11-18T09:11:09;3.60;;;3.23;;
21299;SDS011;10809;49.476;11.016;2023-11-18T09:13:44;3.90;;;3.50;;
21299;SDS011;10809;49.476;11.016;2023-11-18T09:16:17;4.57;;;3.33;;
21299;SDS011;10809;49.476;11.016;2023-11-18T09:18:50;4.23;;;3.10;;
21299;SDS011;10809;49.476;11.016;2023-11-18T09:21:21;4.20;;;3.50;;
21299;SDS011;10809;49.476;11.016;2023-11-18T09:23:59;6.63;;;3.60;;
21299;SDS011;10809;49.476;11.016;2023-11-18T09:26:35;4.67;;;3.83;;
21299;SDS011;10809;49.476;11.016;2023-11-18T09:29:06;4.43;;;3.53;;
21299;SDS011;10809;49.476;11.016;2023-11-18T09:31:38;5.00;;;4.00;;
21299;SDS011;10809;49.476;11.016;2023-11-18T09:34:09;3.73;;;3.20;;
21299;SDS011;10809;49.476;11.016;2023-11-18T09:36:45;5.73;;;4.17;;
21299;SDS011;10809;49.476;11.016;2023-11-18T09:39:18;5.67;;;4.10;;
21299;SDS011;10809;49.476;11.016;2023-11-18T09:41:59;5.33;;;4.13;;
21299;SDS011;10809;49.476;11.016;2023-11-18T09:44:36;5.17;;;4.07;;
21299;SDS011;10809;49.476;11.016;2023-11-18T09:47:08;4.67;;;3.83;;
21299;SDS011;10809;49.476;11.016;2023-11-18T09:49:44;6.07;;;4.07;;
21299;SDS011;10809;49.476;11.016;2023-11-18T09:52:23;5.90;;;4.50;;
21299;SDS011;10809;49.476;11.016;2023-11-18T09:55:16;4.83;;;4.17;;
21299;SDS011;10809;49.476;11.016;2023-11-18T09:57:55;4.97;;;3.83;;
21299;SDS011;10809;49.476;11.016;2023-11-18T10:00:40;5.97;;;4.47;;
21299;SDS011;10809;49.476;11.016;2023-11-18T10:03:12;4.57;;;3.93;;
21299;SDS011;10809;49.476;11.016;2023-11-18T10:05:51;6.27;;;4.13;;
21299;SDS011;10809;49.476;11.016;2023-11-18T10:08:24;4.83;;;3.90;;
21299;SDS011;10809;49.476;11.016;2023-11-18T10:10:56;6.03;;;4.20;;
21299;SDS011;10809;49.476;11.016;2023-11-18T10:13:35;6.30;;;4.30;;
21299;SDS011;10809;49.476;11.016;2023-11-18T10:16:10;5.87;;;4.23;;
21299;SDS011;10809;49.476;11.016;2023-11-18T10:18:47;5.27;;;3.93;;
21299;SDS011;10809;49.476;11.016;2023-11-18T10:21:20;6.30;;;4.23;;
21299;SDS011;10809;49.476;11.016;2023-11-18T10:24:09;5.30;;;4.17;;
21299;SDS011;10809;49.476;11.016;2023-11-18T10:26:55;5.37;;;4.80;;
21299;SDS011;10809;49.476;11.016;2023-11-18T10:29:34;6.27;;;4.67;;
21299;SDS011;10809;49.476;11.016;2023-11-18T10:32:06;5.43;;;4.23;;
21299;SDS011;10809;49.476;11.016;2023-11-18T10:34:52;4.73;;;3.97;;
21299;SDS011;10809;49.476;11.016;2023-11-18T10:37:25;5.23;;;4.00;;
21299;SDS011;10809;49.476;11.016;2023-11-18T10:40:04;4.47;;;3.90;;
21299;SDS011;10809;49.476;11.016;2023-11-18T10:42:51;5.33;;;4.70;;
21299;SDS011;10809;49.476;11.016;2023-11-18T10:45:23;5.10;;;4.20;;
21299;SDS011;10809;49.476;11.016;2023-11-18T10:47:55;4.40;;;3.90;;
21299;SDS011;10809;49.476;11.016;2023-11-18T10:50:29;5.73;;;3.97;;
21299;SDS011;10809;49.476;11.016;2023-11-18T10:53:02;5.70;;;5.07;;
21299;SDS011;10809;49.476;11.016;2023-11-18T10:55:41;5.03;;;4.43;;
21299;SDS011;10809;49.476;11.016;2023-11-18T10:58:11;4.87;;;4.33;;
21299;SDS011;10809;49.476;11.016;2023-11-18T11:00:50;4.07;;;3.67;;
21299;SDS011;10809;49.476;11.016;2023-11-18T11:03:25;5.87;;;3.53;;
21299;SDS011;10809;49.476;11.016;2023-11-18T11:05:56;4.77;;;3.90;;
21299;SDS011;10809;49.476;11.016;2023-11-18T11:08:26;4.97;;;3.93;;
21299;SDS011;10809;49.476;11.016;2023-11-18T11:11:01;5.33;;;4.77;;
21299;SDS011;10809;49.476;11.016;2023-11-18T11:13:38;4.47;;;3.70;;
21299;SDS011;10809;49.476;11.016;2023-11-18T11:16:09;5.47;;;4.43;;
21299;SDS011;10809;49.476;11.016;2023-11-18T11:18:55;5.50;;;4.13;;
21299;SDS011;10809;49.476;11.016;2023-11-18T11:21:26;3.93;;;3.53;;
21299;SDS011;10809;49.476;11.016;2023-11-18T11:24:06;5.63;;;4.67;;
21299;SDS011;10809;49.476;11.016;2023-11-18T11:29:51;4.47;;;4.07;;
21299;SDS011;10809;49.476;11.016;2023-11-18T11:32:35;4.20;;;3.80;;
21299;SDS011;10809;49.476;11.016;2023-11-18T11:35:10;5.37;;;4.47;;
21299;SDS011;10809;49.476;11.016;2023-11-18T11:37:52;6.43;;;4.20;;
21299;SDS011;10809;49.476;11.016;2023-11-18T11:40:23;5.20;;;4.10;;
21299;SDS011;10809;49.476;11.016;2023-11-18T11:43:02;3.40;;;3.10;;
21299;SDS011;10809;49.476;11.016;2023-11-18T11:45:39;6.33;;;3.37;;
21299;SDS011;10809;49.476;11.016;2023-11-18T11:48:10;4.67;;;3.70;;
21299;SDS011;10809;49.476;11.016;2023-11-18T11:50:48;5.67;;;4.03;;
21299;SDS011;10809;49.476;11.016;2023-11-18T11:53:55;3.90;;;3.20;;
21299;SDS011;10809;49.476;11.016;2023-11-18T11:56:39;4.87;;;3.73;;
21299;SDS011;10809;49.476;11.016;2023-11-18T11:59:16;4.30;;;3.63;;
21299;SDS011;10809;49.476;11.016;2023-11-18T12:01:47;5.03;;;4.10;;
21299;SDS011;10809;49.476;11.016;2023-11-18T12:04:22;4.33;;;3.53;;
21299;SDS011;10809;49.476;11.016;2023-11-18T12:07:10;4.83;;;4.00;;
21299;SDS011;10809;49.476;11.016;2023-11-18T12:09:46;4.47;;;3.73;;
21299;SDS011;10809;49.476;11.016;2023-11-18T12:12:17;4.33;;;3.83;;
21299;SDS011;10809;49.476;11.016;2023-11-18T12:14:55;4.00;;;3.60;;
21299;SDS011;10809;49.476;11.016;2023-11-18T12:17:26;3.60;;;3.30;;
21299;SDS011;10809;49.476;11.016;2023-11-18T12:20:01;3.83;;;3.33;;
21299;SDS011;10809;49.476;11.016;2023-11-18T12:23:06;3.97;;;3.57;;
21299;SDS011;10809;49.476;11.016;2023-11-18T12:25:46;3.80;;;3.40;;
21299;SDS011;10809;49.476;11.016;2023-11-18T12:28:26;5.37;;;4.37;;
21299;SDS011;10809;49.476;11.016;2023-11-18T12:30:57;7.50;;;5.90;;
21299;SDS011;10809;49.476;11.016;2023-11-18T12:34:08;7.30;;;5.70;;
21299;SDS011;10809;49.476;11.016;2023-11-18T12:45:43;4.13;;;3.73;;
21299;SDS011;10809;49.476;11.016;2023-11-18T12:48:23;4.17;;;3.33;;
21299;SDS011;10809;49.476;11.016;2023-11-18T12:50:57;3.07;;;2.77;;
21299;SDS011;10809;49.476;11.016;2023-11-18T12:53:27;2.83;;;2.60;;
21299;SDS011;10809;49.476;11.016;2023-11-18T12:55:58;3.27;;;2.97;;
21299;SDS011;10809;49.476;11.016;2023-11-18T12:58:40;3.30;;;3.00;;
21299;SDS011;10809;49.476;11.016;2023-11-18T13:01:10;4.97;;;3.30;;
21299;SDS011;10809;49.476;11.016;2023-11-18T13:03:44;2.80;;;2.60;;
21299;SDS011;10809;49.476;11.016;2023-11-18T13:06:15;2.50;;;2.30;;
21299;SDS011;10809;49.476;11.016;2023-11-18T13:08:45;2.90;;;2.40;;
21299;SDS011;10809;49.476;11.016;2023-11-18T13:11:16;2.80;;;2.50;;
21299;SDS011;10809;49.476;11.016;2023-11-18T13:13:46;2.10;;;1.90;;
21299;SDS011;10809;49.476;11.016;2023-11-18T13:16:17;5.73;;;3.87;;
21299;SDS011;10809;49.476;11.016;2023-11-18T13:18:48;2.60;;;2.40;;
21299;SDS011;10809;49.476;11.016;2023-11-18T13:21:21;2.60;;;2.40;;
21299;SDS011;10809;49.476;11.016;2023-11-18T13:23:57;2.40;;;2.20;;
21299;SDS011;10809;49.476;11.016;2023-11-18T13:26:27;2.80;;;2.00;;
21299;SDS011;10809;49.476;11.016;2023-11-18T13:29:10;2.43;;;2.10;;
21299;SDS011;10809;49.476;11.016;2023-11-18T13:31:40;2.17;;;1.73;;
21299;SDS011;10809;49.476;11.016;2023-11-18T13:34:11;2.30;;;2.10;;
21299;SDS011;10809;49.476;11.016;2023-11-18T13:36:41;2.60;;;1.23;;
21299;SDS011;10809;49.476;11.016;2023-11-18T13:39:17;1.50;;;1.40;;
21299;SDS011;10809;49.476;11.016;2023-11-18T13:41:49;1.90;;;1.67;;
21299;SDS011;10809;49.476;11.016;2023-11-18T13:47:09;2.17;;;1.80;;
21299;SDS011;10809;49.476;11.016;2023-11-18T13:49:41;1.90;;;1.80;;
21299;SDS011;10809;49.476;11.016;2023-11-18T13:52:12;2.00;;;1.80;;
21299;SDS011;10809;49.476;11.016;2023-11-18T13:54:46;2.10;;;1.53;;
21299;SDS011;10809;49.476;11.016;2023-11-18T13:57:17;2.70;;;2.00;;
21299;SDS011;10809;49.476;11.016;2023-11-18T13:59:51;3.43;;;1.40;;
21299;SDS011;10809;49.476;11.016;2023-11-18T14:02:22;1.47;;;1.37;;
21299;SDS011;10809;49.476;11.016;2023-11-18T14:04:52;0.80;;;0.80;;
21299;SDS011;10809;49.476;11.016;2023-11-18T14:07:25;1.57;;;1.47;;
21299;SDS011;10809;49.476;11.016;2023-11-18T14:09:55;1.97;;;1.43;;
21299;SDS011;10809;49.476;11.016;2023-11-18T14:12:26;1.53;;;1.27;;
21299;SDS011;10809;49.476;11.016;2023-11-18T14:15:00;1.10;;;1.10;;
21299;SDS011;10809;49.476;11.016;2023-11-18T14:17:33;1.47;;;1.37;;
21299;SDS011;10809;49.476;11.016;2023-11-18T14:20:07;1.40;;;1.20;;
21299;SDS011;10809;49.476;11.016;2023-11-18T14:22:42;1.43;;;1.33;;
21299;SDS011;10809;49.476;11.016;2023-11-18T14:25:13;1.47;;;1.30;;
21299;SDS011;10809;49.476;11.016;2023-11-18T14:27:43;1.10;;;1.10;;
21299;SDS011;10809;49.476;11.016;2023-11-18T14:30:14;1.30;;;1.20;;
21299;SDS011;10809;49.476;11.016;2023-11-18T14:32:45;1.30;;;1.20;;
21299;SDS011;10809;49.476;11.016;2023-11-18T14:35:19;1.37;;;1.13;;
21299;SDS011;10809;49.476;11.016;2023-11-18T14:37:56;1.00;;;1.00;;
21299;SDS011;10809;49.476;11.016;2023-11-18T14:40:26;2.07;;;1.53;;
21299;SDS011;10809;49.476;11.016;2023-11-18T14:42:58;4.67;;;1.63;;
21299;SDS011;10809;49.476;11.016;2023-11-18T14:45:28;1.47;;;1.37;;
21299;SDS011;10809;49.476;11.016;2023-11-18T14:47:58;1.27;;;1.17;;
21299;SDS011;10809;49.476;11.016;2023-11-18T14:50:29;1.43;;;0.97;;
21299;SDS011;10809;49.476;11.016;2023-11-18T14:53:00;1.53;;;1.43;;
21299;SDS011;10809;49.476;11.016;2023-11-18T14:55:30;1.60;;;1.20;;
21299;SDS011;10809;49.476;11.016;2023-11-18T14:58:01;1.33;;;1.23;;
21299;SDS011;10809;49.476;11.016;2023-11-18T15:00:34;1.50;;;1.30;;
21299;SDS011;10809;49.476;11.016;2023-11-18T15:03:04;1.60;;;1.23;;
21299;SDS011;10809;49.476;11.016;2023-11-18T15:05:39;1.87;;;1.30;;
21299;SDS011;10809;49.476;11.016;2023-11-18T15:08:09;1.27;;;1.10;;
21299;SDS011;10809;49.476;11.016;2023-11-18T15:10:40;1.50;;;1.40;;
21299;SDS011;10809;49.476;11.016;2023-11-18T15:13:12;1.00;;;1.00;;
21299;SDS011;10809;49.476;11.016;2023-11-18T15:15:45;1.50;;;1.40;;
21299;SDS011;10809;49.476;11.016;2023-11-18T15:18:18;1.47;;;1.13;;
21299;SDS011;10809;49.476;11.016;2023-11-18T15:20:49;1.30;;;1.20;;
21299;SDS011;10809;49.476;11.016;2023-11-18T15:23:22;2.03;;;1.60;;